sensor_id;sensor_type;location;lat;lon;timestamp;P1;durP1;ratioP1;P2;durP2;ratioP2
19173;SDS011;9719;49.322;8.536;2023-03-21T00:00:20;7.68;;;3.63;;
19173;SDS011;9719;49.322;8.536;2023-03-21T00:05:24;4.30;;;3.53;;
19173;SDS011;9719;49.322;8.536;2023-03-21T00:10:26;3.83;;;3.47;;
19173;SDS011;9719;49.322;8.536;2023-03-21T00:15:28;7.93;;;3.53;;
19173;SDS011;9719;49.322;8.536;2023-03-21T00:20:31;4.27;;;3.53;;
19173;SDS011;9719;49.322;8.536;2023-03-21T00:25:34;6.90;;;3.70;;
19173;SDS011;9719;49.322;8.536;2023-03-21T00:30:36;6.13;;;3.87;;
19173;SDS011;9719;49.322;8.536;2023-03-21T00:35:41;3.70;;;3.35;;
19173;SDS011;9719;49.322;8.536;2023-03-21T00:40:43;4.22;;;3.47;;
19173;SDS011;9719;49.322;8.536;2023-03-21T00:45:46;4.68;;;3.63;;
19173;SDS011;9719;49.322;8.536;2023-03-21T00:50:49;5.60;;;3.60;;
19173;SDS011;9719;49.322;8.536;2023-03-21T00:55:53;4.68;;;3.53;;
19173;SDS011;9719;49.322;8.536;2023-03-21T01:00:55;4.10;;;3.78;;
19173;SDS011;9719;49.322;8.536;2023-03-21T01:05:58;4.85;;;4.00;;
19173;SDS011;9719;49.322;8.536;2023-03-21T01:11:05;4.90;;;4.32;;
19173;SDS011;9719;49.322;8.536;2023-03-21T01:16:09;4.63;;;4.17;;
19173;SDS011;9719;49.322;8.536;2023-03-21T01:21:12;4.28;;;3.88;;
19173;SDS011;9719;49.322;8.536;2023-03-21T01:26:15;4.05;;;3.72;;
19173;SDS011;9719;49.322;8.536;2023-03-21T01:31:17;5.43;;;4.07;;
19173;SDS011;9719;49.322;8.536;2023-03-21T01:36:21;4.75;;;3.83;;
19173;SDS011;9719;49.322;8.536;2023-03-21T01:41:25;4.63;;;3.78;;
19173;SDS011;9719;49.322;8.536;2023-03-21T01:46:34;4.80;;;3.95;;
19173;SDS011;9719;49.322;8.536;2023-03-21T01:51:40;4.50;;;4.10;;
19173;SDS011;9719;49.322;8.536;2023-03-21T01:56:46;5.07;;;3.75;;
19173;SDS011;9719;49.322;8.536;2023-03-21T02:01:48;4.10;;;3.70;;
19173;SDS011;9719;49.322;8.536;2023-03-21T02:06:53;4.93;;;4.28;;
19173;SDS011;9719;49.322;8.536;2023-03-21T02:11:59;4.90;;;4.50;;
19173;SDS011;9719;49.322;8.536;2023-03-21T02:17:03;6.20;;;3.83;;
19173;SDS011;9719;49.322;8.536;2023-03-21T02:22:19;4.13;;;3.75;;
19173;SDS011;9719;49.322;8.536;2023-03-21T02:27:52;6.38;;;3.72;;
19173;SDS011;9719;49.322;8.536;2023-03-21T02:33:04;3.75;;;3.40;;
19173;SDS011;9719;49.322;8.536;2023-03-21T02:38:23;6.05;;;4.10;;
19173;SDS011;9719;49.322;8.536;2023-03-21T02:43:31;5.05;;;4.43;;
19173;SDS011;9719;49.322;8.536;2023-03-21T02:48:40;5.15;;;4.38;;
19173;SDS011;9719;49.322;8.536;2023-03-21T02:53:53;4.55;;;4.15;;
19173;SDS011;9719;49.322;8.536;2023-03-21T02:58:59;5.00;;;3.83;;
19173;SDS011;9719;49.322;8.536;2023-03-21T03:04:01;4.65;;;4.03;;
19173;SDS011;9719;49.322;8.536;2023-03-21T03:09:16;4.00;;;3.70;;
19173;SDS011;9719;49.322;8.536;2023-03-21T03:14:35;4.40;;;3.67;;
19173;SDS011;9719;49.322;8.536;2023-03-21T03:19:53;4.33;;;3.93;;
19173;SDS011;9719;49.322;8.536;2023-03-21T03:25:08;6.83;;;3.27;;
19173;SDS011;9719;49.322;8.536;2023-03-21T03:30:13;3.40;;;2.95;;
19173;SDS011;9719;49.322;8.536;2023-03-21T03:35:17;3.70;;;3.40;;
19173;SDS011;9719;49.322;8.536;2023-03-21T03:40:24;5.83;;;3.73;;
19173;SDS011;9719;49.322;8.536;2023-03-21T03:45:30;6.38;;;3.80;;
19173;SDS011;9719;49.322;8.536;2023-03-21T03:50:36;4.13;;;3.20;;
19173;SDS011;9719;49.322;8.536;2023-03-21T03:55:43;5.40;;;4.90;;
19173;SDS011;9719;49.322;8.536;2023-03-21T04:00:45;5.77;;;5.27;;
19173;SDS011;9719;49.322;8.536;2023-03-21T04:05:47;6.17;;;5.57;;
19173;SDS011;9719;49.322;8.536;2023-03-21T04:10:51;5.63;;;5.13;;
19173;SDS011;9719;49.322;8.536;2023-03-21T04:15:53;5.38;;;4.22;;
19173;SDS011;9719;49.322;8.536;2023-03-21T04:20:55;5.60;;;5.20;;
19173;SDS011;9719;49.322;8.536;2023-03-21T04:25:58;9.25;;;5.55;;
19173;SDS011;9719;49.322;8.536;2023-03-21T04:31:00;6.22;;;4.45;;
19173;SDS011;9719;49.322;8.536;2023-03-21T04:36:03;4.90;;;4.17;;
19173;SDS011;9719;49.322;8.536;2023-03-21T04:41:09;4.13;;;3.60;;
19173;SDS011;9719;49.322;8.536;2023-03-21T04:46:11;4.27;;;3.87;;
19173;SDS011;9719;49.322;8.536;2023-03-21T04:51:13;5.17;;;4.33;;
19173;SDS011;9719;49.322;8.536;2023-03-21T04:56:17;9.93;;;7.77;;
19173;SDS011;9719;49.322;8.536;2023-03-21T05:01:19;5.40;;;4.90;;
19173;SDS011;9719;49.322;8.536;2023-03-21T05:06:21;6.20;;;5.07;;
19173;SDS011;9719;49.322;8.536;2023-03-21T05:11:24;4.93;;;4.40;;
19173;SDS011;9719;49.322;8.536;2023-03-21T05:16:26;6.20;;;5.60;;
19173;SDS011;9719;49.322;8.536;2023-03-21T05:21:29;5.75;;;4.82;;
19173;SDS011;9719;49.322;8.536;2023-03-21T05:26:34;6.60;;;6.00;;
19173;SDS011;9719;49.322;8.536;2023-03-21T05:31:36;6.20;;;5.60;;
19173;SDS011;9719;49.322;8.536;2023-03-21T05:36:38;7.72;;;6.10;;
19173;SDS011;9719;49.322;8.536;2023-03-21T05:41:42;6.28;;;5.70;;
19173;SDS011;9719;49.322;8.536;2023-03-21T05:46:43;6.03;;;5.43;;
19173;SDS011;9719;49.322;8.536;2023-03-21T05:51:45;7.03;;;4.80;;
19173;SDS011;9719;49.322;8.536;2023-03-21T05:56:48;5.22;;;4.82;;
19173;SDS011;9719;49.322;8.536;2023-03-21T06:01:50;5.75;;;4.15;;
19173;SDS011;9719;49.322;8.536;2023-03-21T06:06:52;5.95;;;4.70;;
19173;SDS011;9719;49.322;8.536;2023-03-21T06:11:56;5.63;;;4.63;;
19173;SDS011;9719;49.322;8.536;2023-03-21T06:16:58;6.50;;;5.00;;
19173;SDS011;9719;49.322;8.536;2023-03-21T06:22:00;7.78;;;4.72;;
19173;SDS011;9719;49.322;8.536;2023-03-21T06:27:04;6.35;;;4.80;;
19173;SDS011;9719;49.322;8.536;2023-03-21T06:32:05;5.50;;;5.05;;
19173;SDS011;9719;49.322;8.536;2023-03-21T06:37:08;6.27;;;4.77;;
19173;SDS011;9719;49.322;8.536;2023-03-21T06:42:11;7.88;;;5.70;;
19173;SDS011;9719;49.322;8.536;2023-03-21T06:47:13;6.13;;;5.50;;
19173;SDS011;9719;49.322;8.536;2023-03-21T06:52:15;6.38;;;5.70;;
19173;SDS011;9719;49.322;8.536;2023-03-21T06:57:19;7.13;;;5.60;;
19173;SDS011;9719;49.322;8.536;2023-03-21T07:02:21;7.22;;;6.53;;
19173;SDS011;9719;49.322;8.536;2023-03-21T07:07:23;7.55;;;6.72;;
19173;SDS011;9719;49.322;8.536;2023-03-21T07:12:27;6.50;;;5.53;;
19173;SDS011;9719;49.322;8.536;2023-03-21T07:17:33;6.28;;;5.68;;
19173;SDS011;9719;49.322;8.536;2023-03-21T07:22:35;6.55;;;5.95;;
19173;SDS011;9719;49.322;8.536;2023-03-21T07:27:40;7.22;;;5.65;;
19173;SDS011;9719;49.322;8.536;2023-03-21T07:32:43;7.68;;;5.97;;
19173;SDS011;9719;49.322;8.536;2023-03-21T07:37:46;6.80;;;6.20;;
19173;SDS011;9719;49.322;8.536;2023-03-21T07:42:50;5.88;;;5.30;;
19173;SDS011;9719;49.322;8.536;2023-03-21T07:47:52;7.55;;;5.35;;
19173;SDS011;9719;49.322;8.536;2023-03-21T07:52:54;6.20;;;5.63;;
19173;SDS011;9719;49.322;8.536;2023-03-21T07:57:58;5.88;;;5.30;;
19173;SDS011;9719;49.322;8.536;2023-03-21T08:03:00;6.70;;;5.75;;
19173;SDS011;9719;49.322;8.536;2023-03-21T08:08:02;5.63;;;5.05;;
19173;SDS011;9719;49.322;8.536;2023-03-21T08:13:05;6.85;;;4.30;;
19173;SDS011;9719;49.322;8.536;2023-03-21T08:18:07;5.32;;;4.72;;
19173;SDS011;9719;49.322;8.536;2023-03-21T08:23:10;5.78;;;5.10;;
19173;SDS011;9719;49.322;8.536;2023-03-21T08:28:14;4.47;;;4.18;;
19173;SDS011;9719;49.322;8.536;2023-03-21T08:33:16;4.90;;;4.40;;
19173;SDS011;9719;49.322;8.536;2023-03-21T08:38:18;4.30;;;3.90;;
19173;SDS011;9719;49.322;8.536;2023-03-21T08:43:22;4.00;;;3.60;;
19173;SDS011;9719;49.322;8.536;2023-03-21T08:48:24;3.42;;;3.13;;
19173;SDS011;9719;49.322;8.536;2023-03-21T08:53:26;4.03;;;3.58;;
19173;SDS011;9719;49.322;8.536;2023-03-21T08:58:29;6.05;;;3.60;;
19173;SDS011;9719;49.322;8.536;2023-03-21T09:03:31;3.90;;;3.60;;
19173;SDS011;9719;49.322;8.536;2023-03-21T09:08:33;4.72;;;3.47;;
19173;SDS011;9719;49.322;8.536;2023-03-21T09:13:36;3.97;;;3.67;;
19173;SDS011;9719;49.322;8.536;2023-03-21T09:18:38;4.20;;;3.83;;
19173;SDS011;9719;49.322;8.536;2023-03-21T09:23:50;3.88;;;3.47;;
19173;SDS011;9719;49.322;8.536;2023-03-21T09:28:56;4.53;;;4.13;;
19173;SDS011;9719;49.322;8.536;2023-03-21T09:33:59;4.47;;;3.10;;
19173;SDS011;9719;49.322;8.536;2023-03-21T09:39:01;3.70;;;3.40;;
19173;SDS011;9719;49.322;8.536;2023-03-21T09:44:08;4.63;;;3.17;;
19173;SDS011;9719;49.322;8.536;2023-03-21T09:49:20;3.65;;;3.35;;
19173;SDS011;9719;49.322;8.536;2023-03-21T09:54:29;3.72;;;3.08;;
19173;SDS011;9719;49.322;8.536;2023-03-21T09:59:36;3.78;;;2.97;;
19173;SDS011;9719;49.322;8.536;2023-03-21T10:04:40;5.20;;;3.25;;
19173;SDS011;9719;49.322;8.536;2023-03-21T10:09:43;2.58;;;2.38;;
19173;SDS011;9719;49.322;8.536;2023-03-21T10:15:15;3.42;;;2.58;;
19173;SDS011;9719;49.322;8.536;2023-03-21T10:21:00;3.20;;;2.55;;
19173;SDS011;9719;49.322;8.536;2023-03-21T10:26:37;2.80;;;2.50;;
19173;SDS011;9719;49.322;8.536;2023-03-21T10:32:21;3.15;;;2.85;;
19173;SDS011;9719;49.322;8.536;2023-03-21T10:37:39;3.35;;;2.55;;
19173;SDS011;9719;49.322;8.536;2023-03-21T10:42:56;3.13;;;2.78;;
19173;SDS011;9719;49.322;8.536;2023-03-21T10:48:18;3.40;;;3.03;;
19173;SDS011;9719;49.322;8.536;2023-03-21T10:53:21;2.80;;;2.60;;
19173;SDS011;9719;49.322;8.536;2023-03-21T10:58:30;5.03;;;2.97;;
19173;SDS011;9719;49.322;8.536;2023-03-21T11:03:40;4.50;;;2.30;;
19173;SDS011;9719;49.322;8.536;2023-03-21T11:08:46;3.30;;;2.75;;
19173;SDS011;9719;49.322;8.536;2023-03-21T11:13:54;1.98;;;1.88;;
19173;SDS011;9719;49.322;8.536;2023-03-21T11:19:01;2.42;;;2.05;;
19173;SDS011;9719;49.322;8.536;2023-03-21T11:24:12;2.15;;;2.05;;
19173;SDS011;9719;49.322;8.536;2023-03-21T11:29:19;2.08;;;1.98;;
19173;SDS011;9719;49.322;8.536;2023-03-21T11:34:30;2.38;;;1.95;;
19173;SDS011;9719;49.322;8.536;2023-03-21T11:39:39;2.75;;;2.55;;
19173;SDS011;9719;49.322;8.536;2023-03-21T11:44:44;2.40;;;2.20;;
19173;SDS011;9719;49.322;8.536;2023-03-21T11:49:48;2.08;;;1.98;;
19173;SDS011;9719;49.322;8.536;2023-03-21T11:54:57;2.28;;;2.08;;
19173;SDS011;9719;49.322;8.536;2023-03-21T12:00:33;2.42;;;2.22;;
19173;SDS011;9719;49.322;8.536;2023-03-21T12:05:44;2.22;;;1.92;;
19173;SDS011;9719;49.322;8.536;2023-03-21T12:10:53;2.55;;;2.35;;
19173;SDS011;9719;49.322;8.536;2023-03-21T12:16:04;2.83;;;2.08;;
19173;SDS011;9719;49.322;8.536;2023-03-21T12:21:17;2.30;;;1.95;;
19173;SDS011;9719;49.322;8.536;2023-03-21T12:26:23;1.88;;;1.70;;
19173;SDS011;9719;49.322;8.536;2023-03-21T12:31:27;1.83;;;1.73;;
19173;SDS011;9719;49.322;8.536;2023-03-21T12:36:45;2.13;;;1.83;;
19173;SDS011;9719;49.322;8.536;2023-03-21T12:42:05;1.45;;;1.30;;
19173;SDS011;9719;49.322;8.536;2023-03-21T12:47:20;2.58;;;1.60;;
19173;SDS011;9719;49.322;8.536;2023-03-21T12:52:26;4.15;;;1.88;;
19173;SDS011;9719;49.322;8.536;2023-03-21T12:57:33;1.77;;;1.67;;
19173;SDS011;9719;49.322;8.536;2023-03-21T13:02:41;1.77;;;1.67;;
19173;SDS011;9719;49.322;8.536;2023-03-21T13:07:49;1.60;;;1.50;;
19173;SDS011;9719;49.322;8.536;2023-03-21T13:13:02;1.60;;;1.50;;
19173;SDS011;9719;49.322;8.536;2023-03-21T13:18:14;1.65;;;1.45;;
19173;SDS011;9719;49.322;8.536;2023-03-21T13:23:24;1.35;;;0.90;;
19173;SDS011;9719;49.322;8.536;2023-03-21T13:28:34;1.48;;;1.20;;
19173;SDS011;9719;49.322;8.536;2023-03-21T13:33:36;1.35;;;1.20;;
19173;SDS011;9719;49.322;8.536;2023-03-21T13:38:49;1.60;;;1.50;;
19173;SDS011;9719;49.322;8.536;2023-03-21T13:43:54;1.83;;;1.73;;
19173;SDS011;9719;49.322;8.536;2023-03-21T13:49:12;1.88;;;1.42;;
19173;SDS011;9719;49.322;8.536;2023-03-21T13:54:22;1.52;;;1.42;;
19173;SDS011;9719;49.322;8.536;2023-03-21T13:59:35;3.53;;;1.70;;
19173;SDS011;9719;49.322;8.536;2023-03-21T14:04:40;1.30;;;1.20;;
19173;SDS011;9719;49.322;8.536;2023-03-21T14:09:45;1.60;;;1.50;;
19173;SDS011;9719;49.322;8.536;2023-03-21T14:14:50;1.52;;;1.42;;
19173;SDS011;9719;49.322;8.536;2023-03-21T14:19:55;1.98;;;1.88;;
19173;SDS011;9719;49.322;8.536;2023-03-21T14:25:01;1.05;;;1.05;;
19173;SDS011;9719;49.322;8.536;2023-03-21T14:30:04;1.88;;;1.77;;
19173;SDS011;9719;49.322;8.536;2023-03-21T14:35:08;1.70;;;1.60;;
19173;SDS011;9719;49.322;8.536;2023-03-21T14:40:21;1.90;;;1.73;;
19173;SDS011;9719;49.322;8.536;2023-03-21T14:45:26;2.42;;;1.52;;
19173;SDS011;9719;49.322;8.536;2023-03-21T14:50:31;2.03;;;1.92;;
19173;SDS011;9719;49.322;8.536;2023-03-21T14:55:41;1.92;;;1.83;;
19173;SDS011;9719;49.322;8.536;2023-03-21T15:00:46;3.47;;;1.90;;
19173;SDS011;9719;49.322;8.536;2023-03-21T15:05:50;1.80;;;1.70;;
19173;SDS011;9719;49.322;8.536;2023-03-21T15:10:57;2.70;;;2.22;;
19173;SDS011;9719;49.322;8.536;2023-03-21T15:16:01;2.83;;;2.13;;
19173;SDS011;9719;49.322;8.536;2023-03-21T15:21:05;5.65;;;2.28;;
19173;SDS011;9719;49.322;8.536;2023-03-21T15:26:14;9.10;;;2.70;;
19173;SDS011;9719;49.322;8.536;2023-03-21T15:31:18;8.05;;;4.25;;
19173;SDS011;9719;49.322;8.536;2023-03-21T15:36:24;4.68;;;3.42;;
19173;SDS011;9719;49.322;8.536;2023-03-21T15:41:30;2.72;;;2.30;;
19173;SDS011;9719;49.322;8.536;2023-03-21T15:46:37;2.28;;;2.17;;
19173;SDS011;9719;49.322;8.536;2023-03-21T15:51:42;3.08;;;2.00;;
19173;SDS011;9719;49.322;8.536;2023-03-21T15:56:48;4.03;;;2.40;;
19173;SDS011;9719;49.322;8.536;2023-03-21T16:01:53;3.05;;;2.83;;
19173;SDS011;9719;49.322;8.536;2023-03-21T16:18:47;2.47;;;2.17;;
19173;SDS011;9719;49.322;8.536;2023-03-21T16:24:02;3.80;;;2.17;;
19173;SDS011;9719;49.322;8.536;2023-03-21T16:29:50;2.70;;;2.10;;
19173;SDS011;9719;49.322;8.536;2023-03-21T16:34:54;1.92;;;1.83;;
19173;SDS011;9719;49.322;8.536;2023-03-21T16:39:58;2.20;;;2.08;;
19173;SDS011;9719;49.322;8.536;2023-03-21T16:45:02;2.40;;;2.20;;
19173;SDS011;9719;49.322;8.536;2023-03-21T16:50:10;1.70;;;1.60;;
19173;SDS011;9719;49.322;8.536;2023-03-21T16:55:25;2.47;;;2.28;;
19173;SDS011;9719;49.322;8.536;2023-03-21T17:12:42;2.38;;;2.17;;
19173;SDS011;9719;49.322;8.536;2023-03-21T17:17:44;3.50;;;2.85;;
19173;SDS011;9719;49.322;8.536;2023-03-21T17:22:49;3.90;;;3.47;;
19173;SDS011;9719;49.322;8.536;2023-03-21T17:27:54;4.40;;;3.97;;
19173;SDS011;9719;49.322;8.536;2023-03-21T17:32:56;4.03;;;3.58;;
19173;SDS011;9719;49.322;8.536;2023-03-21T17:37:58;4.72;;;3.30;;
19173;SDS011;9719;49.322;8.536;2023-03-21T17:43:02;3.75;;;3.25;;
19173;SDS011;9719;49.322;8.536;2023-03-21T17:48:06;7.20;;;4.72;;
19173;SDS011;9719;49.322;8.536;2023-03-21T17:53:07;4.88;;;4.05;;
19173;SDS011;9719;49.322;8.536;2023-03-21T17:58:11;6.38;;;3.60;;
19173;SDS011;9719;49.322;8.536;2023-03-21T18:03:16;4.75;;;3.60;;
19173;SDS011;9719;49.322;8.536;2023-03-21T18:08:19;4.80;;;3.22;;
19173;SDS011;9719;49.322;8.536;2023-03-21T18:13:25;3.50;;;3.20;;
19173;SDS011;9719;49.322;8.536;2023-03-21T18:18:32;3.55;;;3.22;;
19173;SDS011;9719;49.322;8.536;2023-03-21T18:23:34;4.15;;;3.85;;
19173;SDS011;9719;49.322;8.536;2023-03-21T18:28:38;7.85;;;6.45;;
19173;SDS011;9719;49.322;8.536;2023-03-21T18:33:40;6.07;;;4.93;;
19173;SDS011;9719;49.322;8.536;2023-03-21T18:38:45;4.82;;;4.43;;
19173;SDS011;9719;49.322;8.536;2023-03-21T18:43:49;4.68;;;4.28;;
19173;SDS011;9719;49.322;8.536;2023-03-21T18:48:51;22.58;;;12.90;;
19173;SDS011;9719;49.322;8.536;2023-03-21T18:53:53;9.68;;;7.45;;
19173;SDS011;9719;49.322;8.536;2023-03-21T18:58:58;5.50;;;4.40;;
19173;SDS011;9719;49.322;8.536;2023-03-21T19:04:00;5.13;;;4.35;;
19173;SDS011;9719;49.322;8.536;2023-03-21T19:09:02;5.60;;;4.72;;
19173;SDS011;9719;49.322;8.536;2023-03-21T19:14:06;33.55;;;9.05;;
19173;SDS011;9719;49.322;8.536;2023-03-21T19:19:08;8.25;;;6.03;;
19173;SDS011;9719;49.322;8.536;2023-03-21T19:24:10;6.95;;;6.07;;
19173;SDS011;9719;49.322;8.536;2023-03-21T19:29:13;6.35;;;5.75;;
19173;SDS011;9719;49.322;8.536;2023-03-21T19:34:15;6.88;;;5.50;;
19173;SDS011;9719;49.322;8.536;2023-03-21T19:39:18;5.65;;;5.15;;
19173;SDS011;9719;49.322;8.536;2023-03-21T19:44:22;7.45;;;5.40;;
19173;SDS011;9719;49.322;8.536;2023-03-21T19:49:24;6.40;;;5.80;;
19173;SDS011;9719;49.322;8.536;2023-03-21T19:54:26;6.13;;;5.50;;
19173;SDS011;9719;49.322;8.536;2023-03-21T19:59:30;6.55;;;5.65;;
19173;SDS011;9719;49.322;8.536;2023-03-21T20:04:32;7.15;;;6.32;;
19173;SDS011;9719;49.322;8.536;2023-03-21T20:09:34;8.60;;;7.70;;
19173;SDS011;9719;49.322;8.536;2023-03-21T20:14:37;9.63;;;8.27;;
19173;SDS011;9719;49.322;8.536;2023-03-21T20:19:44;16.10;;;7.32;;
19173;SDS011;9719;49.322;8.536;2023-03-21T20:24:46;6.45;;;5.80;;
19173;SDS011;9719;49.322;8.536;2023-03-21T20:29:50;5.75;;;5.05;;
19173;SDS011;9719;49.322;8.536;2023-03-21T20:34:52;5.40;;;4.63;;
19173;SDS011;9719;49.322;8.536;2023-03-21T20:39:54;5.32;;;4.82;;
19173;SDS011;9719;49.322;8.536;2023-03-21T20:44:57;8.43;;;4.93;;
19173;SDS011;9719;49.322;8.536;2023-03-21T20:49:59;5.95;;;5.40;;
19173;SDS011;9719;49.322;8.536;2023-03-21T20:55:02;8.93;;;7.53;;
19173;SDS011;9719;49.322;8.536;2023-03-21T21:00:08;5.95;;;5.38;;
19173;SDS011;9719;49.322;8.536;2023-03-21T21:05:13;7.75;;;4.97;;
19173;SDS011;9719;49.322;8.536;2023-03-21T21:10:16;5.88;;;5.28;;
19173;SDS011;9719;49.322;8.536;2023-03-21T21:15:19;4.40;;;3.95;;
19173;SDS011;9719;49.322;8.536;2023-03-21T21:20:21;4.68;;;4.05;;
19173;SDS011;9719;49.322;8.536;2023-03-21T21:25:23;4.05;;;3.65;;
19173;SDS011;9719;49.322;8.536;2023-03-21T21:30:26;3.40;;;3.00;;
19173;SDS011;9719;49.322;8.536;2023-03-21T21:35:29;4.20;;;3.47;;
19173;SDS011;9719;49.322;8.536;2023-03-21T21:40:32;5.35;;;4.95;;
19173;SDS011;9719;49.322;8.536;2023-03-21T21:45:35;5.55;;;4.47;;
19173;SDS011;9719;49.322;8.536;2023-03-21T21:50:37;4.60;;;3.80;;
19173;SDS011;9719;49.322;8.536;2023-03-21T21:55:40;4.28;;;3.88;;
19173;SDS011;9719;49.322;8.536;2023-03-21T22:00:44;4.45;;;4.05;;
19173;SDS011;9719;49.322;8.536;2023-03-21T22:05:47;4.75;;;4.20;;
19173;SDS011;9719;49.322;8.536;2023-03-21T22:10:48;5.75;;;5.25;;
19173;SDS011;9719;49.322;8.536;2023-03-21T22:15:52;5.50;;;5.00;;
19173;SDS011;9719;49.322;8.536;2023-03-21T22:20:54;4.70;;;4.30;;
19173;SDS011;9719;49.322;8.536;2023-03-21T22:25:56;4.63;;;4.22;;
19173;SDS011;9719;49.322;8.536;2023-03-21T22:31:05;5.18;;;4.78;;
19173;SDS011;9719;49.322;8.536;2023-03-21T22:36:08;4.25;;;3.95;;
19173;SDS011;9719;49.322;8.536;2023-03-21T22:41:10;5.37;;;4.70;;
19173;SDS011;9719;49.322;8.536;2023-03-21T22:46:13;4.53;;;4.13;;
19173;SDS011;9719;49.322;8.536;2023-03-21T22:51:15;4.90;;;4.60;;
19173;SDS011;9719;49.322;8.536;2023-03-21T22:56:17;6.13;;;4.88;;
19173;SDS011;9719;49.322;8.536;2023-03-21T23:01:20;4.63;;;4.23;;
19173;SDS011;9719;49.322;8.536;2023-03-21T23:06:22;5.07;;;4.07;;
19173;SDS011;9719;49.322;8.536;2023-03-21T23:11:24;4.22;;;3.63;;
19173;SDS011;9719;49.322;8.536;2023-03-21T23:16:27;4.50;;;4.18;;
19173;SDS011;9719;49.322;8.536;2023-03-21T23:21:30;5.68;;;4.25;;
19173;SDS011;9719;49.322;8.536;2023-03-21T23:26:33;4.30;;;3.90;;
19173;SDS011;9719;49.322;8.536;2023-03-21T23:31:36;4.75;;;4.35;;
19173;SDS011;9719;49.322;8.536;2023-03-21T23:36:38;5.15;;;4.45;;
19173;SDS011;9719;49.322;8.536;2023-03-21T23:41:40;5.20;;;4.70;;
19173;SDS011;9719;49.322;8.536;2023-03-21T23:46:45;5.85;;;4.40;;
19173;SDS011;9719;49.322;8.536;2023-03-21T23:51:47;6.43;;;4.45;;
19173;SDS011;9719;49.322;8.536;2023-03-21T23:56:49;5.15;;;4.43;;
